sensor_id;sensor_type;location;lat;lon;timestamp;P1;durP1;ratioP1;P2;durP2;ratioP2
12308;SDS011;6217;48.150;17.142;2022-08-19T00:02:47;11.05;;;4.82;;
12308;SDS011;6217;48.150;17.142;2022-08-19T00:06:54;9.10;;;4.43;;
12308;SDS011;6217;48.150;17.142;2022-08-19T00:11:00;11.68;;;4.38;;
12308;SDS011;6217;48.150;17.142;2022-08-19T00:15:07;10.00;;;4.60;;
12308;SDS011;6217;48.150;17.142;2022-08-19T00:19:18;7.38;;;3.95;;
12308;SDS011;6217;48.150;17.142;2022-08-19T00:23:24;9.85;;;3.53;;
12308;SDS011;6217;48.150;17.142;2022-08-19T00:27:31;7.43;;;3.80;;
12308;SDS011;6217;48.150;17.142;2022-08-19T00:31:37;13.70;;;3.20;;
12308;SDS011;6217;48.150;17.142;2022-08-19T00:35:44;11.60;;;3.17;;
12308;SDS011;6217;48.150;17.142;2022-08-19T00:39:51;6.00;;;2.70;;
12308;SDS011;6217;48.150;17.142;2022-08-19T00:44:05;7.60;;;2.50;;
12308;SDS011;6217;48.150;17.142;2022-08-19T00:48:21;6.88;;;1.65;;
12308;SDS011;6217;48.150;17.142;2022-08-19T00:52:32;8.18;;;1.50;;
12308;SDS011;6217;48.150;17.142;2022-08-19T00:56:43;6.22;;;1.38;;
12308;SDS011;6217;48.150;17.142;2022-08-19T01:00:50;9.15;;;1.50;;
12308;SDS011;6217;48.150;17.142;2022-08-19T01:04:56;11.30;;;1.63;;
12308;SDS011;6217;48.150;17.142;2022-08-19T01:09:03;9.77;;;2.25;;
12308;SDS011;6217;48.150;17.142;2022-08-19T01:13:10;4.75;;;2.20;;
12308;SDS011;6217;48.150;17.142;2022-08-19T01:17:20;7.68;;;3.03;;
12308;SDS011;6217;48.150;17.142;2022-08-19T01:21:47;9.90;;;4.18;;
12308;SDS011;6217;48.150;17.142;2022-08-19T01:26:21;7.70;;;2.53;;
12308;SDS011;6217;48.150;17.142;2022-08-19T01:30:31;7.22;;;3.53;;
12308;SDS011;6217;48.150;17.142;2022-08-19T01:34:39;11.45;;;2.67;;
12308;SDS011;6217;48.150;17.142;2022-08-19T01:38:46;6.45;;;3.00;;
12308;SDS011;6217;48.150;17.142;2022-08-19T01:42:53;7.78;;;2.80;;
12308;SDS011;6217;48.150;17.142;2022-08-19T01:47:00;7.32;;;2.30;;
12308;SDS011;6217;48.150;17.142;2022-08-19T01:51:07;9.18;;;2.47;;
12308;SDS011;6217;48.150;17.142;2022-08-19T01:55:20;7.80;;;2.42;;
12308;SDS011;6217;48.150;17.142;2022-08-19T01:59:29;7.15;;;2.88;;
12308;SDS011;6217;48.150;17.142;2022-08-19T02:03:36;8.30;;;2.75;;
12308;SDS011;6217;48.150;17.142;2022-08-19T02:07:42;6.72;;;2.63;;
12308;SDS011;6217;48.150;17.142;2022-08-19T02:11:50;5.90;;;2.65;;
12308;SDS011;6217;48.150;17.142;2022-08-19T02:15:56;9.35;;;2.80;;
12308;SDS011;6217;48.150;17.142;2022-08-19T02:20:03;5.70;;;2.33;;
12308;SDS011;6217;48.150;17.142;2022-08-19T02:24:11;8.38;;;3.15;;
12308;SDS011;6217;48.150;17.142;2022-08-19T02:28:17;9.77;;;4.30;;
12308;SDS011;6217;48.150;17.142;2022-08-19T02:32:23;8.88;;;1.92;;
12308;SDS011;6217;48.150;17.142;2022-08-19T02:36:30;9.75;;;2.00;;
12308;SDS011;6217;48.150;17.142;2022-08-19T02:40:36;8.25;;;2.90;;
12308;SDS011;6217;48.150;17.142;2022-08-19T02:44:42;10.63;;;3.90;;
12308;SDS011;6217;48.150;17.142;2022-08-19T02:48:49;9.60;;;2.55;;
12308;SDS011;6217;48.150;17.142;2022-08-19T02:52:58;6.38;;;1.65;;
12308;SDS011;6217;48.150;17.142;2022-08-19T02:57:04;6.50;;;2.10;;
12308;SDS011;6217;48.150;17.142;2022-08-19T03:01:18;4.45;;;1.58;;
12308;SDS011;6217;48.150;17.142;2022-08-19T03:05:32;5.35;;;1.90;;
12308;SDS011;6217;48.150;17.142;2022-08-19T03:09:38;6.10;;;2.15;;
12308;SDS011;6217;48.150;17.142;2022-08-19T03:13:44;7.65;;;1.95;;
12308;SDS011;6217;48.150;17.142;2022-08-19T03:17:51;10.88;;;1.67;;
12308;SDS011;6217;48.150;17.142;2022-08-19T03:21:57;7.53;;;2.75;;
12308;SDS011;6217;48.150;17.142;2022-08-19T03:26:04;9.48;;;3.85;;
12308;SDS011;6217;48.150;17.142;2022-08-19T03:30:11;9.85;;;2.45;;
12308;SDS011;6217;48.150;17.142;2022-08-19T03:34:20;6.55;;;2.08;;
12308;SDS011;6217;48.150;17.142;2022-08-19T03:38:35;7.53;;;2.10;;
12308;SDS011;6217;48.150;17.142;2022-08-19T03:42:45;4.03;;;1.83;;
12308;SDS011;6217;48.150;17.142;2022-08-19T03:46:53;13.48;;;2.83;;
12308;SDS011;6217;48.150;17.142;2022-08-19T03:51:02;8.75;;;3.30;;
12308;SDS011;6217;48.150;17.142;2022-08-19T03:55:08;10.73;;;2.00;;
12308;SDS011;6217;48.150;17.142;2022-08-19T03:59:20;8.90;;;3.08;;
12308;SDS011;6217;48.150;17.142;2022-08-19T04:03:32;5.32;;;1.77;;
12308;SDS011;6217;48.150;17.142;2022-08-19T04:07:41;16.08;;;1.98;;
12308;SDS011;6217;48.150;17.142;2022-08-19T04:11:48;9.13;;;2.90;;
12308;SDS011;6217;48.150;17.142;2022-08-19T04:15:59;7.88;;;2.10;;
12308;SDS011;6217;48.150;17.142;2022-08-19T04:20:05;9.40;;;1.83;;
12308;SDS011;6217;48.150;17.142;2022-08-19T04:24:12;7.53;;;2.20;;
12308;SDS011;6217;48.150;17.142;2022-08-19T04:28:19;13.57;;;3.20;;
12308;SDS011;6217;48.150;17.142;2022-08-19T04:32:26;5.43;;;2.03;;
12308;SDS011;6217;48.150;17.142;2022-08-19T04:36:33;11.73;;;2.40;;
12308;SDS011;6217;48.150;17.142;2022-08-19T04:40:42;6.90;;;2.53;;
12308;SDS011;6217;48.150;17.142;2022-08-19T04:45:11;6.82;;;2.53;;
12308;SDS011;6217;48.150;17.142;2022-08-19T04:49:20;11.33;;;3.20;;
12308;SDS011;6217;48.150;17.142;2022-08-19T04:53:28;7.65;;;2.95;;
12308;SDS011;6217;48.150;17.142;2022-08-19T04:57:36;7.57;;;3.42;;
12308;SDS011;6217;48.150;17.142;2022-08-19T05:01:46;10.25;;;4.32;;
12308;SDS011;6217;48.150;17.142;2022-08-19T05:05:55;8.88;;;4.45;;
12308;SDS011;6217;48.150;17.142;2022-08-19T05:10:02;10.90;;;3.83;;
12308;SDS011;6217;48.150;17.142;2022-08-19T05:14:11;8.50;;;4.17;;
12308;SDS011;6217;48.150;17.142;2022-08-19T05:18:18;11.95;;;5.07;;
12308;SDS011;6217;48.150;17.142;2022-08-19T05:22:43;11.18;;;4.55;;
12308;SDS011;6217;48.150;17.142;2022-08-19T05:26:52;5.97;;;5.38;;
12308;SDS011;6217;48.150;17.142;2022-08-19T05:31:02;6.53;;;4.88;;
12308;SDS011;6217;48.150;17.142;2022-08-19T05:35:08;7.07;;;5.82;;
12308;SDS011;6217;48.150;17.142;2022-08-19T05:39:16;6.82;;;5.35;;
12308;SDS011;6217;48.150;17.142;2022-08-19T05:43:25;7.53;;;5.45;;
12308;SDS011;6217;48.150;17.142;2022-08-19T05:47:32;9.18;;;5.75;;
12308;SDS011;6217;48.150;17.142;2022-08-19T05:51:38;7.57;;;5.60;;
12308;SDS011;6217;48.150;17.142;2022-08-19T05:55:44;10.30;;;5.97;;
12308;SDS011;6217;48.150;17.142;2022-08-19T05:59:51;7.85;;;6.25;;
12308;SDS011;6217;48.150;17.142;2022-08-19T06:03:59;10.05;;;6.28;;
12308;SDS011;6217;48.150;17.142;2022-08-19T06:08:05;9.18;;;6.65;;
12308;SDS011;6217;48.150;17.142;2022-08-19T06:12:13;14.50;;;6.85;;
12308;SDS011;6217;48.150;17.142;2022-08-19T06:16:22;11.20;;;6.68;;
12308;SDS011;6217;48.150;17.142;2022-08-19T06:20:28;13.40;;;6.13;;
12308;SDS011;6217;48.150;17.142;2022-08-19T06:24:34;9.75;;;6.13;;
12308;SDS011;6217;48.150;17.142;2022-08-19T06:28:41;6.45;;;5.80;;
12308;SDS011;6217;48.150;17.142;2022-08-19T06:32:51;10.82;;;6.45;;
12308;SDS011;6217;48.150;17.142;2022-08-19T06:36:58;20.73;;;6.78;;
12308;SDS011;6217;48.150;17.142;2022-08-19T06:41:06;10.90;;;6.65;;
12308;SDS011;6217;48.150;17.142;2022-08-19T06:45:13;9.13;;;6.88;;
12308;SDS011;6217;48.150;17.142;2022-08-19T06:49:20;7.80;;;7.10;;
12308;SDS011;6217;48.150;17.142;2022-08-19T06:53:28;11.85;;;6.78;;
12308;SDS011;6217;48.150;17.142;2022-08-19T06:57:34;6.65;;;6.00;;
12308;SDS011;6217;48.150;17.142;2022-08-19T07:01:42;8.10;;;6.30;;
12308;SDS011;6217;48.150;17.142;2022-08-19T07:05:52;9.60;;;6.80;;
12308;SDS011;6217;48.150;17.142;2022-08-19T07:09:58;12.15;;;6.43;;
12308;SDS011;6217;48.150;17.142;2022-08-19T07:14:04;6.35;;;4.15;;
12308;SDS011;6217;48.150;17.142;2022-08-19T07:18:12;10.60;;;3.42;;
12308;SDS011;6217;48.150;17.142;2022-08-19T07:22:18;8.48;;;2.97;;
12308;SDS011;6217;48.150;17.142;2022-08-19T07:26:27;8.50;;;3.53;;
12308;SDS011;6217;48.150;17.142;2022-08-19T07:30:37;9.60;;;3.47;;
12308;SDS011;6217;48.150;17.142;2022-08-19T07:34:43;9.10;;;3.63;;
12308;SDS011;6217;48.150;17.142;2022-08-19T07:38:50;7.68;;;4.28;;
12308;SDS011;6217;48.150;17.142;2022-08-19T07:42:59;8.38;;;3.50;;
12308;SDS011;6217;48.150;17.142;2022-08-19T07:47:06;5.30;;;3.00;;
12308;SDS011;6217;48.150;17.142;2022-08-19T07:51:15;12.32;;;3.22;;
12308;SDS011;6217;48.150;17.142;2022-08-19T07:55:25;9.05;;;2.83;;
12308;SDS011;6217;48.150;17.142;2022-08-19T07:59:31;7.57;;;4.25;;
12308;SDS011;6217;48.150;17.142;2022-08-19T08:03:38;6.40;;;4.03;;
12308;SDS011;6217;48.150;17.142;2022-08-19T08:08:04;6.90;;;4.90;;
12308;SDS011;6217;48.150;17.142;2022-08-19T08:12:33;9.93;;;4.50;;
12308;SDS011;6217;48.150;17.142;2022-08-19T08:16:47;7.60;;;4.55;;
12308;SDS011;6217;48.150;17.142;2022-08-19T08:20:55;15.63;;;6.00;;
12308;SDS011;6217;48.150;17.142;2022-08-19T08:25:05;9.03;;;5.13;;
12308;SDS011;6217;48.150;17.142;2022-08-19T08:29:22;7.28;;;6.45;;
12308;SDS011;6217;48.150;17.142;2022-08-19T08:33:28;8.38;;;6.63;;
12308;SDS011;6217;48.150;17.142;2022-08-19T08:37:35;11.75;;;5.47;;
12308;SDS011;6217;48.150;17.142;2022-08-19T08:42:31;8.32;;;5.88;;
12308;SDS011;6217;48.150;17.142;2022-08-19T08:46:36;10.15;;;5.57;;
12308;SDS011;6217;48.150;17.142;2022-08-19T08:51:00;14.68;;;7.38;;
12308;SDS011;6217;48.150;17.142;2022-08-19T08:55:18;8.43;;;5.60;;
12308;SDS011;6217;48.150;17.142;2022-08-19T08:59:33;7.47;;;6.70;;
12308;SDS011;6217;48.150;17.142;2022-08-19T09:03:44;7.57;;;5.30;;
12308;SDS011;6217;48.150;17.142;2022-08-19T09:07:59;7.50;;;6.35;;
12308;SDS011;6217;48.150;17.142;2022-08-19T09:12:42;11.20;;;5.57;;
12308;SDS011;6217;48.150;17.142;2022-08-19T09:16:57;9.73;;;5.35;;
12308;SDS011;6217;48.150;17.142;2022-08-19T09:21:04;6.10;;;5.50;;
12308;SDS011;6217;48.150;17.142;2022-08-19T09:25:13;10.93;;;5.93;;
12308;SDS011;6217;48.150;17.142;2022-08-19T09:29:22;8.52;;;6.28;;
12308;SDS011;6217;48.150;17.142;2022-08-19T09:33:28;11.05;;;6.25;;
12308;SDS011;6217;48.150;17.142;2022-08-19T09:37:34;16.77;;;6.68;;
12308;SDS011;6217;48.150;17.142;2022-08-19T09:41:41;8.20;;;5.60;;
12308;SDS011;6217;48.150;17.142;2022-08-19T09:45:47;9.77;;;5.97;;
12308;SDS011;6217;48.150;17.142;2022-08-19T09:49:53;12.90;;;5.82;;
12308;SDS011;6217;48.150;17.142;2022-08-19T09:54:01;9.88;;;6.18;;
12308;SDS011;6217;48.150;17.142;2022-08-19T09:58:08;11.87;;;6.63;;
12308;SDS011;6217;48.150;17.142;2022-08-19T10:02:15;11.30;;;5.40;;
12308;SDS011;6217;48.150;17.142;2022-08-19T10:06:22;8.63;;;5.53;;
12308;SDS011;6217;48.150;17.142;2022-08-19T10:10:34;11.13;;;6.22;;
12308;SDS011;6217;48.150;17.142;2022-08-19T10:14:41;8.38;;;5.85;;
12308;SDS011;6217;48.150;17.142;2022-08-19T10:18:48;10.70;;;5.82;;
12308;SDS011;6217;48.150;17.142;2022-08-19T10:22:55;9.73;;;5.28;;
12308;SDS011;6217;48.150;17.142;2022-08-19T10:27:01;10.05;;;5.85;;
12308;SDS011;6217;48.150;17.142;2022-08-19T10:31:11;10.02;;;5.20;;
12308;SDS011;6217;48.150;17.142;2022-08-19T10:35:28;11.82;;;6.45;;
12308;SDS011;6217;48.150;17.142;2022-08-19T10:39:35;12.07;;;4.90;;
12308;SDS011;6217;48.150;17.142;2022-08-19T10:43:41;5.57;;;4.47;;
12308;SDS011;6217;48.150;17.142;2022-08-19T10:47:50;11.02;;;4.45;;
12308;SDS011;6217;48.150;17.142;2022-08-19T10:51:58;13.10;;;4.38;;
12308;SDS011;6217;48.150;17.142;2022-08-19T10:56:22;7.80;;;4.32;;
12308;SDS011;6217;48.150;17.142;2022-08-19T11:00:54;6.93;;;3.75;;
12308;SDS011;6217;48.150;17.142;2022-08-19T11:05:03;12.90;;;3.83;;
12308;SDS011;6217;48.150;17.142;2022-08-19T11:09:09;11.18;;;5.22;;
12308;SDS011;6217;48.150;17.142;2022-08-19T11:13:17;11.07;;;4.70;;
12308;SDS011;6217;48.150;17.142;2022-08-19T11:17:23;9.63;;;4.72;;
12308;SDS011;6217;48.150;17.142;2022-08-19T11:21:30;11.02;;;5.00;;
12308;SDS011;6217;48.150;17.142;2022-08-19T11:25:39;9.18;;;4.55;;
12308;SDS011;6217;48.150;17.142;2022-08-19T11:29:47;10.27;;;5.60;;
12308;SDS011;6217;48.150;17.142;2022-08-19T11:33:53;11.32;;;4.68;;
12308;SDS011;6217;48.150;17.142;2022-08-19T11:38:01;9.43;;;5.70;;
12308;SDS011;6217;48.150;17.142;2022-08-19T11:42:07;6.93;;;5.50;;
12308;SDS011;6217;48.150;17.142;2022-08-19T11:46:35;15.32;;;5.45;;
12308;SDS011;6217;48.150;17.142;2022-08-19T11:50:43;9.35;;;4.18;;
12308;SDS011;6217;48.150;17.142;2022-08-19T11:54:49;5.00;;;3.58;;
12308;SDS011;6217;48.150;17.142;2022-08-19T11:58:55;4.93;;;3.50;;
12308;SDS011;6217;48.150;17.142;2022-08-19T12:03:02;11.63;;;3.92;;
12308;SDS011;6217;48.150;17.142;2022-08-19T12:07:08;8.50;;;3.20;;
12308;SDS011;6217;48.150;17.142;2022-08-19T12:11:14;5.72;;;2.90;;
12308;SDS011;6217;48.150;17.142;2022-08-19T12:15:21;18.33;;;4.47;;
12308;SDS011;6217;48.150;17.142;2022-08-19T12:19:27;6.72;;;3.42;;
12308;SDS011;6217;48.150;17.142;2022-08-19T12:23:33;16.00;;;3.70;;
12308;SDS011;6217;48.150;17.142;2022-08-19T12:27:42;6.60;;;3.10;;
12308;SDS011;6217;48.150;17.142;2022-08-19T12:31:48;15.63;;;3.05;;
12308;SDS011;6217;48.150;17.142;2022-08-19T12:35:55;9.95;;;2.75;;
12308;SDS011;6217;48.150;17.142;2022-08-19T12:40:10;11.73;;;3.42;;
12308;SDS011;6217;48.150;17.142;2022-08-19T12:44:17;9.95;;;2.70;;
12308;SDS011;6217;48.150;17.142;2022-08-19T12:48:24;8.60;;;2.63;;
12308;SDS011;6217;48.150;17.142;2022-08-19T12:52:30;9.10;;;3.00;;
12308;SDS011;6217;48.150;17.142;2022-08-19T12:56:36;7.55;;;2.75;;
12308;SDS011;6217;48.150;17.142;2022-08-19T13:00:43;13.30;;;2.63;;
12308;SDS011;6217;48.150;17.142;2022-08-19T13:04:51;6.30;;;3.20;;
12308;SDS011;6217;48.150;17.142;2022-08-19T13:08:57;7.30;;;2.72;;
12308;SDS011;6217;48.150;17.142;2022-08-19T13:13:04;7.57;;;2.10;;
12308;SDS011;6217;48.150;17.142;2022-08-19T13:17:14;8.90;;;3.30;;
12308;SDS011;6217;48.150;17.142;2022-08-19T13:21:21;9.27;;;4.15;;
12308;SDS011;6217;48.150;17.142;2022-08-19T13:25:32;9.75;;;2.97;;
12308;SDS011;6217;48.150;17.142;2022-08-19T13:29:40;9.48;;;3.35;;
12308;SDS011;6217;48.150;17.142;2022-08-19T13:34:06;12.52;;;2.67;;
12308;SDS011;6217;48.150;17.142;2022-08-19T13:38:13;9.63;;;3.58;;
12308;SDS011;6217;48.150;17.142;2022-08-19T13:42:23;6.25;;;2.08;;
12308;SDS011;6217;48.150;17.142;2022-08-19T13:46:29;11.75;;;3.28;;
12308;SDS011;6217;48.150;17.142;2022-08-19T13:50:43;10.68;;;3.05;;
12308;SDS011;6217;48.150;17.142;2022-08-19T13:54:52;10.65;;;2.58;;
12308;SDS011;6217;48.150;17.142;2022-08-19T13:58:59;6.88;;;2.40;;
12308;SDS011;6217;48.150;17.142;2022-08-19T14:03:05;10.45;;;2.30;;
12308;SDS011;6217;48.150;17.142;2022-08-19T14:07:12;12.98;;;3.10;;
12308;SDS011;6217;48.150;17.142;2022-08-19T14:11:18;11.43;;;2.10;;
12308;SDS011;6217;48.150;17.142;2022-08-19T14:15:25;10.18;;;2.88;;
12308;SDS011;6217;48.150;17.142;2022-08-19T14:19:32;16.70;;;2.50;;
12308;SDS011;6217;48.150;17.142;2022-08-19T14:23:38;11.07;;;2.47;;
12308;SDS011;6217;48.150;17.142;2022-08-19T14:27:44;11.98;;;2.75;;
12308;SDS011;6217;48.150;17.142;2022-08-19T14:31:51;11.90;;;2.35;;
12308;SDS011;6217;48.150;17.142;2022-08-19T14:35:57;10.00;;;3.38;;
12308;SDS011;6217;48.150;17.142;2022-08-19T14:40:05;9.90;;;3.20;;
12308;SDS011;6217;48.150;17.142;2022-08-19T14:44:13;9.43;;;2.90;;
12308;SDS011;6217;48.150;17.142;2022-08-19T14:48:19;16.40;;;4.88;;
12308;SDS011;6217;48.150;17.142;2022-08-19T14:52:26;16.95;;;2.50;;
12308;SDS011;6217;48.150;17.142;2022-08-19T14:56:33;12.20;;;2.63;;
12308;SDS011;6217;48.150;17.142;2022-08-19T15:00:39;14.25;;;2.67;;
12308;SDS011;6217;48.150;17.142;2022-08-19T15:04:45;18.63;;;2.65;;
12308;SDS011;6217;48.150;17.142;2022-08-19T15:08:51;15.55;;;3.58;;
12308;SDS011;6217;48.150;17.142;2022-08-19T15:12:58;14.45;;;4.22;;
12308;SDS011;6217;48.150;17.142;2022-08-19T15:17:04;14.82;;;5.00;;
12308;SDS011;6217;48.150;17.142;2022-08-19T15:21:11;19.90;;;5.45;;
12308;SDS011;6217;48.150;17.142;2022-08-19T15:25:21;11.98;;;3.45;;
12308;SDS011;6217;48.150;17.142;2022-08-19T15:29:28;14.20;;;3.72;;
12308;SDS011;6217;48.150;17.142;2022-08-19T15:33:34;12.43;;;3.65;;
12308;SDS011;6217;48.150;17.142;2022-08-19T15:37:42;14.30;;;3.00;;
12308;SDS011;6217;48.150;17.142;2022-08-19T15:41:48;7.10;;;2.80;;
12308;SDS011;6217;48.150;17.142;2022-08-19T15:45:55;12.60;;;2.70;;
12308;SDS011;6217;48.150;17.142;2022-08-19T15:50:07;12.90;;;2.25;;
12308;SDS011;6217;48.150;17.142;2022-08-19T15:54:28;10.48;;;2.47;;
12308;SDS011;6217;48.150;17.142;2022-08-19T15:58:34;12.20;;;3.47;;
12308;SDS011;6217;48.150;17.142;2022-08-19T16:02:58;12.98;;;3.28;;
12308;SDS011;6217;48.150;17.142;2022-08-19T16:07:23;9.45;;;2.72;;
12308;SDS011;6217;48.150;17.142;2022-08-19T16:11:30;14.70;;;4.43;;
12308;SDS011;6217;48.150;17.142;2022-08-19T16:15:38;15.67;;;2.87;;
12308;SDS011;6217;48.150;17.142;2022-08-19T16:19:48;8.45;;;2.63;;
12308;SDS011;6217;48.150;17.142;2022-08-19T16:23:54;14.18;;;2.80;;
12308;SDS011;6217;48.150;17.142;2022-08-19T16:28:01;12.18;;;3.13;;
12308;SDS011;6217;48.150;17.142;2022-08-19T16:32:09;9.40;;;3.15;;
12308;SDS011;6217;48.150;17.142;2022-08-19T16:36:16;13.40;;;3.22;;
12308;SDS011;6217;48.150;17.142;2022-08-19T16:40:22;11.27;;;2.70;;
12308;SDS011;6217;48.150;17.142;2022-08-19T16:44:29;8.13;;;3.00;;
12308;SDS011;6217;48.150;17.142;2022-08-19T16:48:36;9.18;;;2.90;;
12308;SDS011;6217;48.150;17.142;2022-08-19T16:52:47;9.02;;;2.85;;
12308;SDS011;6217;48.150;17.142;2022-08-19T16:56:53;14.77;;;3.22;;
12308;SDS011;6217;48.150;17.142;2022-08-19T17:01:02;10.13;;;3.22;;
12308;SDS011;6217;48.150;17.142;2022-08-19T17:05:10;10.90;;;2.80;;
12308;SDS011;6217;48.150;17.142;2022-08-19T17:09:16;8.60;;;3.00;;
12308;SDS011;6217;48.150;17.142;2022-08-19T17:13:24;11.00;;;2.92;;
12308;SDS011;6217;48.150;17.142;2022-08-19T17:17:34;8.15;;;2.55;;
12308;SDS011;6217;48.150;17.142;2022-08-19T17:21:41;10.35;;;2.45;;
12308;SDS011;6217;48.150;17.142;2022-08-19T17:25:48;13.27;;;2.80;;
12308;SDS011;6217;48.150;17.142;2022-08-19T17:29:55;9.63;;;3.08;;
12308;SDS011;6217;48.150;17.142;2022-08-19T17:34:04;5.47;;;1.98;;
12308;SDS011;6217;48.150;17.142;2022-08-19T17:38:11;8.20;;;2.78;;
12308;SDS011;6217;48.150;17.142;2022-08-19T17:42:22;8.40;;;2.00;;
12308;SDS011;6217;48.150;17.142;2022-08-19T17:46:28;6.30;;;1.63;;
12308;SDS011;6217;48.150;17.142;2022-08-19T17:50:35;11.73;;;2.65;;
12308;SDS011;6217;48.150;17.142;2022-08-19T17:54:43;12.55;;;2.50;;
12308;SDS011;6217;48.150;17.142;2022-08-19T17:58:50;9.85;;;2.85;;
12308;SDS011;6217;48.150;17.142;2022-08-19T18:02:58;8.57;;;2.20;;
12308;SDS011;6217;48.150;17.142;2022-08-19T18:07:08;15.23;;;3.10;;
12308;SDS011;6217;48.150;17.142;2022-08-19T18:11:14;6.00;;;1.90;;
12308;SDS011;6217;48.150;17.142;2022-08-19T18:15:21;10.75;;;2.30;;
12308;SDS011;6217;48.150;17.142;2022-08-19T18:19:28;10.82;;;1.88;;
12308;SDS011;6217;48.150;17.142;2022-08-19T18:23:34;10.98;;;2.20;;
12308;SDS011;6217;48.150;17.142;2022-08-19T18:27:42;11.68;;;2.22;;
12308;SDS011;6217;48.150;17.142;2022-08-19T18:31:50;16.50;;;2.88;;
12308;SDS011;6217;48.150;17.142;2022-08-19T18:36:02;10.65;;;2.03;;
12308;SDS011;6217;48.150;17.142;2022-08-19T18:40:10;12.45;;;3.40;;
12308;SDS011;6217;48.150;17.142;2022-08-19T18:44:41;13.65;;;2.05;;
12308;SDS011;6217;48.150;17.142;2022-08-19T18:49:06;9.30;;;2.55;;
12308;SDS011;6217;48.150;17.142;2022-08-19T18:53:14;16.33;;;2.35;;
12308;SDS011;6217;48.150;17.142;2022-08-19T18:57:20;15.75;;;2.85;;
12308;SDS011;6217;48.150;17.142;2022-08-19T19:01:33;11.13;;;2.20;;
12308;SDS011;6217;48.150;17.142;2022-08-19T19:05:43;9.93;;;2.25;;
12308;SDS011;6217;48.150;17.142;2022-08-19T19:09:49;11.85;;;2.17;;
12308;SDS011;6217;48.150;17.142;2022-08-19T19:13:56;11.38;;;2.55;;
12308;SDS011;6217;48.150;17.142;2022-08-19T19:18:06;8.20;;;3.35;;
12308;SDS011;6217;48.150;17.142;2022-08-19T19:22:15;8.70;;;2.05;;
12308;SDS011;6217;48.150;17.142;2022-08-19T19:26:23;9.88;;;2.47;;
12308;SDS011;6217;48.150;17.142;2022-08-19T19:30:30;8.82;;;2.60;;
12308;SDS011;6217;48.150;17.142;2022-08-19T19:34:36;12.05;;;4.18;;
12308;SDS011;6217;48.150;17.142;2022-08-19T19:38:43;12.93;;;2.95;;
12308;SDS011;6217;48.150;17.142;2022-08-19T19:42:50;10.23;;;2.53;;
12308;SDS011;6217;48.150;17.142;2022-08-19T19:46:56;6.90;;;2.58;;
12308;SDS011;6217;48.150;17.142;2022-08-19T19:51:04;12.57;;;3.00;;
12308;SDS011;6217;48.150;17.142;2022-08-19T19:55:10;14.65;;;2.45;;
12308;SDS011;6217;48.150;17.142;2022-08-19T19:59:22;12.55;;;2.33;;
12308;SDS011;6217;48.150;17.142;2022-08-19T20:03:28;11.88;;;3.47;;
12308;SDS011;6217;48.150;17.142;2022-08-19T20:07:36;8.80;;;4.53;;
12308;SDS011;6217;48.150;17.142;2022-08-19T20:12:02;10.13;;;2.63;;
12308;SDS011;6217;48.150;17.142;2022-08-19T20:16:08;12.05;;;3.65;;
12308;SDS011;6217;48.150;17.142;2022-08-19T20:20:15;15.18;;;2.85;;
12308;SDS011;6217;48.150;17.142;2022-08-19T20:24:24;10.98;;;3.65;;
12308;SDS011;6217;48.150;17.142;2022-08-19T20:28:37;10.85;;;3.47;;
12308;SDS011;6217;48.150;17.142;2022-08-19T20:32:43;9.70;;;4.30;;
12308;SDS011;6217;48.150;17.142;2022-08-19T20:36:51;18.25;;;5.13;;
12308;SDS011;6217;48.150;17.142;2022-08-19T20:40:57;11.10;;;4.70;;
12308;SDS011;6217;48.150;17.142;2022-08-19T20:45:04;9.68;;;4.97;;
12308;SDS011;6217;48.150;17.142;2022-08-19T20:49:13;14.30;;;4.43;;
12308;SDS011;6217;48.150;17.142;2022-08-19T20:53:19;14.43;;;5.38;;
12308;SDS011;6217;48.150;17.142;2022-08-19T20:57:27;12.75;;;7.30;;
12308;SDS011;6217;48.150;17.142;2022-08-19T21:01:33;10.38;;;5.47;;
12308;SDS011;6217;48.150;17.142;2022-08-19T21:05:39;12.82;;;5.20;;
12308;SDS011;6217;48.150;17.142;2022-08-19T21:09:46;10.77;;;4.55;;
12308;SDS011;6217;48.150;17.142;2022-08-19T21:13:52;14.27;;;6.13;;
12308;SDS011;6217;48.150;17.142;2022-08-19T21:17:58;13.18;;;5.22;;
12308;SDS011;6217;48.150;17.142;2022-08-19T21:22:04;16.08;;;5.95;;
12308;SDS011;6217;48.150;17.142;2022-08-19T21:26:10;19.80;;;8.13;;
12308;SDS011;6217;48.150;17.142;2022-08-19T21:30:16;10.90;;;5.53;;
12308;SDS011;6217;48.150;17.142;2022-08-19T21:34:23;19.50;;;6.50;;
12308;SDS011;6217;48.150;17.142;2022-08-19T21:38:29;9.85;;;6.13;;
12308;SDS011;6217;48.150;17.142;2022-08-19T21:42:36;11.48;;;7.03;;
12308;SDS011;6217;48.150;17.142;2022-08-19T21:46:43;17.42;;;5.85;;
12308;SDS011;6217;48.150;17.142;2022-08-19T21:50:50;20.85;;;6.32;;
12308;SDS011;6217;48.150;17.142;2022-08-19T21:54:56;12.68;;;5.45;;
12308;SDS011;6217;48.150;17.142;2022-08-19T21:59:02;12.15;;;5.93;;
12308;SDS011;6217;48.150;17.142;2022-08-19T22:03:08;12.70;;;5.25;;
12308;SDS011;6217;48.150;17.142;2022-08-19T22:07:15;9.93;;;5.65;;
12308;SDS011;6217;48.150;17.142;2022-08-19T22:11:22;20.55;;;6.20;;
12308;SDS011;6217;48.150;17.142;2022-08-19T22:15:30;14.80;;;4.80;;
12308;SDS011;6217;48.150;17.142;2022-08-19T22:19:36;13.13;;;5.00;;
12308;SDS011;6217;48.150;17.142;2022-08-19T22:23:43;12.70;;;6.50;;
12308;SDS011;6217;48.150;17.142;2022-08-19T22:27:49;10.07;;;4.53;;
12308;SDS011;6217;48.150;17.142;2022-08-19T22:31:56;10.38;;;5.22;;
12308;SDS011;6217;48.150;17.142;2022-08-19T22:36:02;17.27;;;8.48;;
12308;SDS011;6217;48.150;17.142;2022-08-19T22:40:12;13.18;;;5.35;;
12308;SDS011;6217;48.150;17.142;2022-08-19T22:44:19;9.32;;;6.30;;
12308;SDS011;6217;48.150;17.142;2022-08-19T22:48:27;9.57;;;5.53;;
12308;SDS011;6217;48.150;17.142;2022-08-19T22:52:35;13.25;;;5.75;;
12308;SDS011;6217;48.150;17.142;2022-08-19T22:56:41;12.50;;;5.93;;
12308;SDS011;6217;48.150;17.142;2022-08-19T23:00:47;10.05;;;4.95;;
12308;SDS011;6217;48.150;17.142;2022-08-19T23:04:54;10.00;;;5.40;;
12308;SDS011;6217;48.150;17.142;2022-08-19T23:09:01;13.05;;;5.57;;
12308;SDS011;6217;48.150;17.142;2022-08-19T23:13:09;15.52;;;6.25;;
12308;SDS011;6217;48.150;17.142;2022-08-19T23:17:16;12.00;;;5.95;;
12308;SDS011;6217;48.150;17.142;2022-08-19T23:21:22;13.10;;;6.07;;
12308;SDS011;6217;48.150;17.142;2022-08-19T23:25:31;11.70;;;5.82;;
12308;SDS011;6217;48.150;17.142;2022-08-19T23:29:39;15.57;;;7.43;;
12308;SDS011;6217;48.150;17.142;2022-08-19T23:34:04;15.48;;;6.68;;
12308;SDS011;6217;48.150;17.142;2022-08-19T23:38:10;11.50;;;6.00;;
12308;SDS011;6217;48.150;17.142;2022-08-19T23:42:16;14.00;;;7.55;;
12308;SDS011;6217;48.150;17.142;2022-08-19T23:46:24;13.38;;;6.40;;
12308;SDS011;6217;48.150;17.142;2022-08-19T23:50:30;12.75;;;6.03;;
12308;SDS011;6217;48.150;17.142;2022-08-19T23:54:37;12.38;;;6.32;;
12308;SDS011;6217;48.150;17.142;2022-08-19T23:58:43;13.15;;;7.50;;
